Terminal Aerodrome Forecast
Issued by NWS Sioux Falls, SD

Home | Current Version | Previous Version | Text Only | Print | Product List | Glossary On
Versions: 1 2 3 4 5 6 7 8 9 10 11 12 13 14
658
FTUS43 KFSD 241720
TAFHON
TAF
KHON 241720Z 2418/2518 02015G25KT P6SM VCSH SCT018 OVC035
      TEMPO 2418/2422 BKN018
     FM242200 35015G23KT P6SM VCSH OVC035
     FM242300 34012KT P6SM OVC045
     FM250400 33006KT P6SM SCT150
     FM251600 22004KT P6SM SKC=

USA.gov is the U.S. government's official web portal to all federal, state and local government web resources and services.